createdAt,value
2022-10-25T00:00:38.376Z,14.29
2022-10-25T00:01:38.560Z,14.36
2022-10-25T00:02:38.426Z,14.33
2022-10-25T00:03:38.377Z,14.36
2022-10-25T00:04:38.346Z,14.35
2022-10-25T00:05:38.326Z,14.30
2022-10-25T00:06:38.333Z,14.33
2022-10-25T00:07:38.305Z,14.33
2022-10-25T00:08:38.288Z,14.26
2022-10-25T00:09:38.288Z,14.32
2022-10-25T00:10:38.267Z,14.35
2022-10-25T00:11:38.272Z,14.28
2022-10-25T00:13:38.270Z,14.25
2022-10-25T00:14:38.231Z,14.28
2022-10-25T00:15:38.207Z,14.22
2022-10-25T00:16:38.223Z,14.28
2022-10-25T00:17:38.213Z,14.20
2022-10-25T00:18:38.189Z,14.25
2022-10-25T00:19:38.184Z,14.22
2022-10-25T00:20:38.155Z,14.17
2022-10-25T00:21:38.139Z,14.15
2022-10-25T00:22:38.181Z,14.17
2022-10-25T00:23:38.120Z,14.07
2022-10-25T00:24:38.114Z,14.10
2022-10-25T00:25:38.106Z,14.12
2022-10-25T00:26:38.122Z,14.15
2022-10-25T00:27:38.086Z,14.07
2022-10-25T00:28:38.080Z,14.10
2022-10-25T00:29:38.075Z,14.08
2022-10-25T00:30:38.040Z,14.11
2022-10-25T00:31:38.043Z,14.12
2022-10-25T00:32:38.023Z,14.07
2022-10-25T00:33:38.024Z,14.10
2022-10-25T00:34:38.021Z,14.11
2022-10-25T00:35:38.032Z,14.03
2022-10-25T00:36:37.976Z,14.07
2022-10-25T00:37:38.014Z,14.11
2022-10-25T00:38:37.975Z,14.08
2022-10-25T00:39:37.955Z,14.12
2022-10-25T00:40:37.945Z,14.05
2022-10-25T00:41:37.915Z,14.08
2022-10-25T00:42:37.942Z,14.04
2022-10-25T00:43:37.899Z,14.15
2022-10-25T00:44:37.888Z,14.07
2022-10-25T00:45:37.874Z,14.07
2022-10-25T00:46:37.878Z,14.05
2022-10-25T00:47:37.847Z,14.05
2022-10-25T00:48:37.852Z,14.11
2022-10-25T00:49:37.834Z,14.04
2022-10-25T00:50:37.832Z,14.04
2022-10-25T00:51:37.832Z,13.97
2022-10-25T00:52:37.821Z,14.00
2022-10-25T00:53:37.799Z,14.05
2022-10-25T00:54:37.776Z,13.97
2022-10-25T00:55:37.756Z,14.04
2022-10-25T00:56:37.753Z,13.96
2022-10-25T00:57:37.760Z,13.99
2022-10-25T00:58:37.742Z,14.00
2022-10-25T00:59:37.742Z,13.92
2022-10-25T01:00:37.711Z,14.04
2022-10-25T01:01:37.821Z,13.96
2022-10-25T01:02:37.820Z,14.05
2022-10-25T01:03:37.690Z,13.96
2022-10-25T01:04:37.657Z,13.95
2022-10-25T01:05:37.652Z,13.95
2022-10-25T01:06:37.663Z,13.87
2022-10-25T01:07:37.644Z,13.93
2022-10-25T01:08:37.629Z,13.90
2022-10-25T01:09:37.610Z,13.97
2022-10-25T01:10:37.597Z,13.87
2022-10-25T01:11:37.584Z,14.00
2022-10-25T01:12:37.585Z,13.92
2022-10-25T01:13:37.585Z,13.93
2022-10-25T01:14:37.561Z,13.92
2022-10-25T01:15:37.537Z,13.89
2022-10-25T01:16:37.529Z,13.90
2022-10-25T01:17:37.517Z,13.95
2022-10-25T01:18:37.522Z,13.90
2022-10-25T01:19:37.513Z,13.97
2022-10-25T01:20:37.493Z,13.92
2022-10-25T01:21:37.471Z,13.86
2022-10-25T01:22:37.477Z,13.89
2022-10-25T01:23:37.473Z,13.89
2022-10-25T01:24:37.435Z,13.90
2022-10-25T01:25:37.439Z,13.92
2022-10-25T01:26:37.411Z,13.90
2022-10-25T01:27:37.427Z,13.97
2022-10-25T01:28:37.439Z,13.87
2022-10-25T01:29:37.405Z,13.87
2022-10-25T01:30:37.375Z,13.95
2022-10-25T01:31:37.362Z,13.90
2022-10-25T01:32:37.351Z,13.95
2022-10-25T01:33:37.362Z,13.90
2022-10-25T01:34:37.338Z,13.96
2022-10-25T01:35:37.347Z,13.95
2022-10-25T01:36:37.301Z,13.99
2022-10-25T01:37:37.304Z,13.97
2022-10-25T01:38:37.295Z,14.03
2022-10-25T01:39:37.290Z,13.97
2022-10-25T01:40:37.257Z,14.03
2022-10-25T01:41:37.258Z,14.05
2022-10-25T01:42:37.243Z,14.03
2022-10-25T01:43:37.223Z,14.08
2022-10-25T01:45:37.200Z,14.10
2022-10-25T01:46:37.232Z,14.08
2022-10-25T01:47:37.179Z,14.14
2022-10-25T01:48:37.164Z,14.12
2022-10-25T01:49:37.190Z,14.10
2022-10-25T01:50:37.176Z,14.08
2022-10-25T01:51:37.139Z,14.17
2022-10-25T01:52:37.126Z,14.05
2022-10-25T01:53:37.117Z,14.07
2022-10-25T01:54:37.102Z,14.11
2022-10-25T01:55:37.109Z,14.12
2022-10-25T01:56:37.091Z,14.11
2022-10-25T01:57:37.084Z,14.14
2022-10-25T01:58:37.051Z,14.12
2022-10-25T01:59:37.058Z,14.12
2022-10-25T02:00:37.079Z,14.14
2022-10-25T02:01:37.256Z,14.17
2022-10-25T02:02:37.031Z,14.22
2022-10-25T02:03:36.998Z,14.17
2022-10-25T02:04:37.010Z,14.17
2022-10-25T02:05:36.981Z,14.22
2022-10-25T02:06:36.965Z,14.23
2022-10-25T02:07:36.965Z,14.22
2022-10-25T02:08:36.939Z,14.20
2022-10-25T02:09:36.959Z,14.25
2022-10-25T02:10:36.921Z,14.26
2022-10-25T02:11:36.958Z,14.17
2022-10-25T02:12:36.894Z,14.18
2022-10-25T02:13:36.925Z,14.29
2022-10-25T02:14:36.875Z,14.20
2022-10-25T02:15:36.864Z,14.26
2022-10-25T02:16:36.876Z,14.18
2022-10-25T02:17:36.863Z,14.23
2022-10-25T02:18:36.845Z,14.22
2022-10-25T02:19:36.832Z,14.25
2022-10-25T02:20:36.826Z,14.20
2022-10-25T02:21:36.799Z,14.18
2022-10-25T02:22:36.833Z,14.25
2022-10-25T02:23:36.774Z,14.18
2022-10-25T02:24:36.781Z,14.30
2022-10-25T02:25:36.766Z,14.23
2022-10-25T02:26:36.789Z,14.33
2022-10-25T02:27:36.751Z,14.30
2022-10-25T02:28:36.732Z,14.28
2022-10-25T02:29:36.711Z,14.28
2022-10-25T02:30:36.711Z,14.28
2022-10-25T02:31:36.716Z,14.28
2022-10-25T02:32:36.671Z,14.25
2022-10-25T02:33:36.665Z,14.30
2022-10-25T02:34:36.672Z,14.29
2022-10-25T02:35:36.644Z,14.33
2022-10-25T02:36:36.651Z,14.33
2022-10-25T02:37:36.622Z,14.35
2022-10-25T02:38:36.609Z,14.30
2022-10-25T02:39:36.600Z,14.32
2022-10-25T02:40:36.614Z,14.33
2022-10-25T02:41:36.576Z,14.32
2022-10-25T02:42:36.580Z,14.32
2022-10-25T02:43:36.576Z,14.30
2022-10-25T02:44:36.540Z,14.32
2022-10-25T02:45:36.535Z,14.28
2022-10-25T02:46:36.566Z,14.32
2022-10-25T02:47:36.509Z,14.36
2022-10-25T02:48:36.492Z,14.32
2022-10-25T02:49:36.489Z,14.29
2022-10-25T02:50:36.484Z,14.29
2022-10-25T02:51:36.466Z,14.33
2022-10-25T02:52:36.481Z,14.28
2022-10-25T02:53:36.451Z,14.30
2022-10-25T02:54:36.437Z,14.30
2022-10-25T02:55:36.442Z,14.33
2022-10-25T02:56:36.411Z,14.32
2022-10-25T02:57:36.399Z,14.35
2022-10-25T02:58:36.387Z,14.35
2022-10-25T02:59:36.394Z,14.35
2022-10-25T03:00:36.414Z,14.33
2022-10-25T03:01:36.394Z,14.30
2022-10-25T03:02:36.344Z,14.28
2022-10-25T03:03:36.340Z,14.37
2022-10-25T03:04:36.352Z,14.33
2022-10-25T03:05:36.305Z,14.33
2022-10-25T03:06:36.291Z,14.37
2022-10-25T03:07:36.318Z,14.35
2022-10-25T03:08:36.276Z,14.37
2022-10-25T03:09:36.268Z,14.32
2022-10-25T03:10:36.259Z,14.33
2022-10-25T03:11:36.234Z,14.32
2022-10-25T03:12:36.225Z,14.30
2022-10-25T03:13:36.258Z,14.37
2022-10-25T03:14:36.209Z,14.40
2022-10-25T03:15:36.215Z,14.41
2022-10-25T03:16:36.255Z,14.36
2022-10-25T03:17:36.176Z,14.35
2022-10-25T03:18:36.168Z,14.37
2022-10-25T03:19:36.165Z,14.35
2022-10-25T03:20:36.139Z,14.35
2022-10-25T03:21:38.639Z,14.43
2022-10-25T03:22:37.149Z,14.33
2022-10-25T03:23:36.110Z,14.37
2022-10-25T03:24:36.107Z,14.41
2022-10-25T03:25:36.098Z,14.48
2022-10-25T03:26:36.105Z,14.43
2022-10-25T03:27:36.067Z,14.35
2022-10-25T03:28:36.048Z,14.35
2022-10-25T03:29:36.037Z,14.36
2022-10-25T03:30:36.050Z,14.30
2022-10-25T03:31:36.047Z,14.32
2022-10-25T03:32:35.999Z,14.32
2022-10-25T03:33:36.033Z,14.37
2022-10-25T03:34:35.980Z,14.32
2022-10-25T03:35:35.980Z,14.37
2022-10-25T03:36:35.982Z,14.40
2022-10-25T03:37:35.954Z,14.45
2022-10-25T03:38:35.936Z,14.41
2022-10-25T03:39:35.975Z,14.37
2022-10-25T03:40:35.930Z,14.43
2022-10-25T03:41:35.906Z,14.53
2022-10-25T03:42:35.890Z,14.44
2022-10-25T03:43:35.894Z,14.47
2022-10-25T03:44:35.870Z,14.47
2022-10-25T03:45:35.885Z,14.45
2022-10-25T03:46:35.847Z,14.45
2022-10-25T03:47:35.853Z,14.41
2022-10-25T03:48:35.829Z,14.41
2022-10-25T03:49:35.815Z,14.33
2022-10-25T03:50:35.823Z,14.37
2022-10-25T03:51:35.805Z,14.36
2022-10-25T03:52:35.779Z,14.45
2022-10-25T03:53:35.794Z,14.41
2022-10-25T03:54:35.763Z,14.47
2022-10-25T03:55:35.775Z,14.47
2022-10-25T03:56:35.791Z,14.47
2022-10-25T03:57:35.728Z,14.48
2022-10-25T03:58:35.711Z,14.47
2022-10-25T03:59:35.707Z,14.43
2022-10-25T04:00:35.719Z,14.48
2022-10-25T04:01:35.868Z,14.45
2022-10-25T04:02:35.697Z,14.44
2022-10-25T04:03:35.682Z,14.51
2022-10-25T04:04:35.651Z,14.44
2022-10-25T04:05:35.641Z,14.41
2022-10-25T04:06:35.640Z,14.32
2022-10-25T04:07:35.630Z,14.37
2022-10-25T04:08:35.603Z,14.32
2022-10-25T04:09:35.601Z,14.32
2022-10-25T04:10:35.580Z,14.30
2022-10-25T04:11:35.573Z,14.32
2022-10-25T04:12:35.577Z,14.33
2022-10-25T04:13:35.544Z,14.35
2022-10-25T04:14:35.547Z,14.37
2022-10-25T04:15:35.530Z,14.35
2022-10-25T04:16:35.511Z,14.36
2022-10-25T04:17:35.519Z,14.37
2022-10-25T04:18:35.500Z,14.36
2022-10-25T04:19:35.501Z,14.32
2022-10-25T04:20:35.485Z,14.26
2022-10-25T04:21:35.460Z,14.32
2022-10-25T04:23:35.447Z,14.26
2022-10-25T04:24:35.420Z,14.32
2022-10-25T04:25:35.412Z,14.35
2022-10-25T04:26:35.402Z,14.28
2022-10-25T04:27:35.400Z,14.29
2022-10-25T04:28:35.376Z,14.33
2022-10-25T04:29:35.385Z,14.29
2022-10-25T04:30:38.818Z,14.29
2022-10-25T04:31:35.348Z,14.17
2022-10-25T04:32:35.345Z,14.32
2022-10-25T04:33:35.339Z,14.28
2022-10-25T04:34:35.312Z,14.25
2022-10-25T04:35:35.349Z,14.18
2022-10-25T04:36:35.286Z,14.30
2022-10-25T04:37:35.281Z,14.22
2022-10-25T04:38:35.270Z,14.23
2022-10-25T04:39:35.291Z,14.28
2022-10-25T04:40:35.255Z,14.15
2022-10-25T04:41:35.239Z,14.20
2022-10-25T04:42:35.258Z,14.25
2022-10-25T04:43:35.213Z,14.18
2022-10-25T04:44:35.209Z,14.18
2022-10-25T04:45:35.254Z,14.14
2022-10-25T04:46:35.196Z,14.08
2022-10-25T04:47:35.175Z,14.11
2022-10-25T04:48:35.165Z,14.12
2022-10-25T04:49:35.144Z,14.17
2022-10-25T04:50:35.166Z,14.20
2022-10-25T04:51:35.152Z,14.20
2022-10-25T04:52:35.129Z,14.10
2022-10-25T04:53:35.112Z,14.14
2022-10-25T04:54:35.093Z,14.22
2022-10-25T04:55:35.102Z,14.11
2022-10-25T04:56:35.080Z,14.22
2022-10-25T04:57:35.059Z,14.11
2022-10-25T04:58:35.046Z,14.17
2022-10-25T04:59:35.071Z,14.15
2022-10-25T05:00:35.019Z,14.17
2022-10-25T05:01:35.177Z,14.17
2022-10-25T05:02:35.051Z,14.20
2022-10-25T05:03:35.006Z,14.08
2022-10-25T05:04:34.978Z,14.08
2022-10-25T05:05:34.978Z,14.15
2022-10-25T05:06:34.962Z,14.18
2022-10-25T05:07:34.982Z,14.11
2022-10-25T05:08:34.930Z,14.05
2022-10-25T05:09:34.936Z,14.10
2022-10-25T05:10:34.929Z,14.10
2022-10-25T05:12:34.893Z,14.20
2022-10-25T05:13:34.887Z,14.17
2022-10-25T05:14:34.866Z,14.14
2022-10-25T05:15:34.851Z,14.18
2022-10-25T05:16:34.856Z,14.15
2022-10-25T05:17:34.867Z,14.22
2022-10-25T05:18:34.821Z,14.25
2022-10-25T05:19:34.813Z,14.22
2022-10-25T05:20:34.811Z,14.17
2022-10-25T05:21:34.793Z,14.22
2022-10-25T05:22:34.799Z,14.08
2022-10-25T05:23:34.786Z,14.17
2022-10-25T05:24:34.776Z,14.17
2022-10-25T05:25:34.761Z,14.12
2022-10-25T05:26:34.753Z,14.14
2022-10-25T05:27:34.717Z,14.10
2022-10-25T05:28:34.723Z,14.11
2022-10-25T05:29:34.711Z,14.11
2022-10-25T05:30:34.688Z,14.10
2022-10-25T05:31:34.675Z,14.05
2022-10-25T05:32:34.705Z,14.07
2022-10-25T05:33:34.661Z,14.05
2022-10-25T05:34:34.642Z,14.17
2022-10-25T05:35:34.650Z,14.20
2022-10-25T05:36:34.649Z,14.17
2022-10-25T05:37:34.620Z,14.18
2022-10-25T05:38:37.745Z,14.18
2022-10-25T05:39:34.616Z,14.08
2022-10-25T05:40:34.580Z,14.12
2022-10-25T05:41:37.013Z,14.04
2022-10-25T05:42:34.590Z,14.10
2022-10-25T05:43:34.557Z,14.05
2022-10-25T05:44:34.553Z,14.14
2022-10-25T05:45:34.517Z,14.18
2022-10-25T05:46:34.510Z,14.15
2022-10-25T05:47:34.495Z,14.14
2022-10-25T05:48:34.515Z,14.20
2022-10-25T05:49:34.534Z,14.11
2022-10-25T05:50:34.511Z,14.04
2022-10-25T05:51:36.189Z,14.05
2022-10-25T05:52:34.443Z,14.11
2022-10-25T05:53:34.464Z,14.07
2022-10-25T05:54:34.447Z,14.10
2022-10-25T05:55:34.425Z,14.04
2022-10-25T05:56:34.401Z,14.04
2022-10-25T05:57:34.400Z,14.03
2022-10-25T05:58:34.375Z,14.00
2022-10-25T05:59:34.407Z,13.93
2022-10-25T06:00:34.424Z,13.93
2022-10-25T06:01:34.453Z,13.95
2022-10-25T06:02:34.356Z,13.95
2022-10-25T06:03:34.318Z,13.89
2022-10-25T06:04:34.329Z,13.87
2022-10-25T06:05:34.298Z,13.95
2022-10-25T06:06:34.305Z,13.93
2022-10-25T06:07:34.279Z,13.89
2022-10-25T06:08:34.277Z,13.95
2022-10-25T06:09:34.256Z,13.92
2022-10-25T06:10:34.248Z,13.92
2022-10-25T06:11:34.266Z,13.92
2022-10-25T06:12:34.217Z,13.93
2022-10-25T06:13:34.201Z,13.95
2022-10-25T06:14:34.210Z,13.90
2022-10-25T06:15:34.197Z,13.81
2022-10-25T06:16:34.180Z,13.81
2022-10-25T06:17:34.161Z,13.79
2022-10-25T06:18:34.155Z,13.79
2022-10-25T06:19:34.147Z,13.79
2022-10-25T06:20:34.204Z,13.78
2022-10-25T06:21:34.140Z,13.81
2022-10-25T06:22:34.114Z,13.75
2022-10-25T06:23:34.092Z,13.79
2022-10-25T06:24:34.085Z,13.78
2022-10-25T06:25:34.080Z,13.85
2022-10-25T06:26:34.064Z,13.83
2022-10-25T06:27:34.113Z,13.79
2022-10-25T06:28:34.060Z,13.81
2022-10-25T06:29:34.031Z,13.81
2022-10-25T06:30:34.020Z,13.75
2022-10-25T06:31:34.014Z,13.85
2022-10-25T06:32:33.996Z,13.79
2022-10-25T06:33:34.006Z,13.71
2022-10-25T06:34:33.972Z,13.68
2022-10-25T06:35:33.969Z,13.71
2022-10-25T06:36:33.955Z,13.70
2022-10-25T06:37:33.957Z,13.71
2022-10-25T06:38:33.927Z,13.71
2022-10-25T06:39:33.927Z,13.70
2022-10-25T06:40:33.910Z,13.68
2022-10-25T06:41:33.911Z,13.71
2022-10-25T06:42:33.890Z,13.68
2022-10-25T06:43:33.892Z,13.72
2022-10-25T06:44:33.877Z,13.79
2022-10-25T06:45:33.850Z,13.77
2022-10-25T06:46:33.837Z,13.77
2022-10-25T06:47:33.877Z,13.81
2022-10-25T06:48:33.818Z,13.79
2022-10-25T06:49:33.838Z,13.85
2022-10-25T06:50:33.802Z,13.79
2022-10-25T06:51:33.790Z,13.81
2022-10-25T06:52:33.781Z,13.79
2022-10-25T06:53:33.766Z,13.74
2022-10-25T06:54:33.759Z,13.68
2022-10-25T06:55:33.755Z,13.68
2022-10-25T06:56:33.733Z,13.81
2022-10-25T06:57:33.713Z,13.79
2022-10-25T06:58:33.722Z,13.77
2022-10-25T06:59:33.728Z,13.71
2022-10-25T07:00:33.716Z,13.79
2022-10-25T07:01:33.763Z,13.74
2022-10-25T07:02:33.701Z,13.83
2022-10-25T07:03:33.663Z,13.79
2022-10-25T07:04:33.658Z,13.74
2022-10-25T07:05:33.625Z,13.75
2022-10-25T07:06:33.646Z,13.81
2022-10-25T07:07:33.622Z,13.92
2022-10-25T07:08:33.591Z,13.92
2022-10-25T07:09:33.592Z,13.93
2022-10-25T07:10:33.574Z,13.95
2022-10-25T07:11:33.589Z,14.04
2022-10-25T07:12:33.551Z,14.07
2022-10-25T07:13:33.533Z,14.05
2022-10-25T07:14:33.545Z,14.10
2022-10-25T07:15:34.708Z,14.07
2022-10-25T07:16:33.507Z,14.08
2022-10-25T07:17:33.489Z,14.14
2022-10-25T07:18:33.491Z,14.23
2022-10-25T07:19:33.468Z,14.08
2022-10-25T07:20:33.464Z,14.08
2022-10-25T07:21:33.466Z,14.08
2022-10-25T07:22:33.437Z,14.20
2022-10-25T07:23:33.428Z,14.11
2022-10-25T07:24:33.414Z,14.20
2022-10-25T07:25:33.410Z,14.15
2022-10-25T07:26:33.414Z,14.23
2022-10-25T07:27:33.377Z,14.20
2022-10-25T07:28:33.370Z,14.25
2022-10-25T07:29:33.372Z,14.25
2022-10-25T07:30:33.349Z,14.26
2022-10-25T07:31:33.373Z,14.18
2022-10-25T07:32:33.336Z,14.28
2022-10-25T07:33:33.312Z,14.25
2022-10-25T07:34:33.306Z,14.33
2022-10-25T07:35:38.512Z,14.30
2022-10-25T07:36:34.297Z,14.30
2022-10-25T07:37:33.266Z,14.48
2022-10-25T07:38:33.258Z,14.48
2022-10-25T07:39:33.261Z,14.50
2022-10-25T07:40:33.238Z,14.44
2022-10-25T07:41:33.230Z,14.40
2022-10-25T07:42:33.238Z,14.48
2022-10-25T07:43:33.213Z,14.43
2022-10-25T07:44:33.246Z,14.48
2022-10-25T07:45:33.221Z,14.55
2022-10-25T07:46:33.195Z,14.54
2022-10-25T07:47:33.182Z,14.54
2022-10-25T07:48:33.176Z,14.48
2022-10-25T07:49:33.150Z,14.65
2022-10-25T07:50:33.128Z,14.70
2022-10-25T07:51:33.116Z,14.89
2022-10-25T07:52:33.154Z,14.99
2022-10-25T07:53:33.104Z,15.00
2022-10-25T07:54:33.106Z,15.22
2022-10-25T07:55:33.084Z,15.39
2022-10-25T07:56:33.067Z,15.59
2022-10-25T07:57:33.067Z,15.98
2022-10-25T07:58:33.046Z,16.21
2022-10-25T07:59:33.031Z,16.50
2022-10-25T08:00:33.016Z,16.41
2022-10-25T08:01:33.099Z,16.23
2022-10-25T08:02:32.994Z,15.88
2022-10-25T08:03:33.087Z,15.72
2022-10-25T08:04:33.228Z,15.49
2022-10-25T08:05:32.956Z,15.47
2022-10-25T08:06:32.959Z,15.49
2022-10-25T08:07:32.946Z,15.37
2022-10-25T08:08:32.924Z,15.25
2022-10-25T08:09:38.250Z,15.15
2022-10-25T08:10:33.906Z,15.04
2022-10-25T08:11:32.900Z,15.03
2022-10-25T08:12:32.901Z,14.97
2022-10-25T08:13:32.898Z,14.89
2022-10-25T08:14:35.040Z,14.86
2022-10-25T08:15:33.852Z,14.84
2022-10-25T08:16:32.847Z,14.89
2022-10-25T08:17:32.823Z,14.84
2022-10-25T08:18:32.829Z,14.81
2022-10-25T08:19:32.840Z,14.72
2022-10-25T08:21:00.097Z,14.84
2022-10-25T08:21:33.798Z,14.77
2022-10-25T08:22:32.793Z,14.78
2022-10-25T08:23:32.849Z,14.81
2022-10-25T08:24:32.751Z,14.79
2022-10-25T08:25:32.734Z,14.77
2022-10-25T08:26:36.650Z,14.85
2022-10-25T08:27:32.726Z,14.92
2022-10-25T08:28:32.712Z,14.94
2022-10-25T08:29:32.697Z,14.97
2022-10-25T08:30:32.686Z,14.92
2022-10-25T08:31:32.671Z,14.92
2022-10-25T08:32:32.658Z,14.99
2022-10-25T08:33:32.656Z,14.88
2022-10-25T08:34:33.337Z,14.94
2022-10-25T08:35:32.641Z,14.96
2022-10-25T08:36:32.618Z,14.97
2022-10-25T08:37:32.600Z,14.89
2022-10-25T08:38:32.601Z,14.96
2022-10-25T08:39:32.590Z,14.92
2022-10-25T08:40:32.575Z,14.97
2022-10-25T08:41:32.578Z,14.99
2022-10-25T08:42:32.549Z,15.02
2022-10-25T08:43:32.545Z,14.97
2022-10-25T08:44:32.531Z,15.03
2022-10-25T08:45:32.520Z,15.06
2022-10-25T08:46:32.513Z,15.04
2022-10-25T08:47:32.490Z,14.99
2022-10-25T08:48:32.491Z,14.92
2022-10-25T08:49:32.467Z,15.00
2022-10-25T08:50:32.469Z,14.96
2022-10-25T08:51:32.465Z,15.02
2022-10-25T08:52:32.486Z,14.99
2022-10-25T08:53:32.422Z,14.99
2022-10-25T08:54:32.414Z,15.03
2022-10-25T08:55:32.403Z,14.99
2022-10-25T08:56:32.392Z,15.00
2022-10-25T08:57:32.386Z,14.94
2022-10-25T08:58:32.381Z,14.97
2022-10-25T08:59:32.357Z,14.99
2022-10-25T09:00:32.350Z,15.03
2022-10-25T09:01:32.470Z,15.02
2022-10-25T09:02:32.584Z,15.06
2022-10-25T09:03:32.377Z,15.15
2022-10-25T09:04:32.305Z,15.17
2022-10-25T09:05:32.289Z,15.15
2022-10-25T09:06:32.284Z,15.17
2022-10-25T09:07:32.289Z,15.19
2022-10-25T09:08:32.269Z,15.21
2022-10-25T09:09:32.255Z,15.18
2022-10-25T09:10:32.238Z,15.06
2022-10-25T09:11:32.225Z,15.14
2022-10-25T09:12:32.228Z,15.18
2022-10-25T09:13:32.243Z,15.19
2022-10-25T09:14:32.243Z,15.22
2022-10-25T09:15:32.182Z,15.40
2022-10-25T09:16:32.184Z,15.37
2022-10-25T09:17:32.178Z,15.39
2022-10-25T09:18:32.164Z,15.37
2022-10-25T09:19:32.145Z,15.40
2022-10-25T09:20:32.138Z,15.40
2022-10-25T09:21:32.133Z,15.33
2022-10-25T09:22:32.137Z,15.37
2022-10-25T09:23:32.137Z,15.39
2022-10-25T09:24:32.105Z,15.42
2022-10-25T09:25:32.088Z,15.24
2022-10-25T09:26:32.091Z,15.22
2022-10-25T09:27:32.046Z,15.11
2022-10-25T09:28:32.038Z,15.07
2022-10-25T09:29:32.046Z,15.04
2022-10-25T09:30:32.028Z,14.99
2022-10-25T09:31:32.021Z,15.02
2022-10-25T09:32:31.994Z,15.04
2022-10-25T09:33:32.008Z,14.99
2022-10-25T09:34:31.977Z,14.99
2022-10-25T09:35:31.970Z,15.03
2022-10-25T09:36:31.948Z,14.97
2022-10-25T09:37:31.942Z,14.97
2022-10-25T09:38:31.928Z,15.07
2022-10-25T09:39:31.946Z,15.02
2022-10-25T09:40:31.920Z,15.02
2022-10-25T09:41:31.912Z,15.18
2022-10-25T09:42:31.891Z,15.10
2022-10-25T09:43:31.912Z,15.07
2022-10-25T09:44:31.859Z,15.15
2022-10-25T09:45:31.866Z,15.15
2022-10-25T09:46:31.850Z,15.14
2022-10-25T09:47:31.841Z,15.18
2022-10-25T09:48:31.815Z,15.15
2022-10-25T09:49:31.808Z,15.09
2022-10-25T09:50:31.820Z,15.09
2022-10-25T09:51:31.784Z,15.15
2022-10-25T09:52:31.774Z,14.99
2022-10-25T09:53:31.769Z,15.03
2022-10-25T09:54:31.759Z,15.06
2022-10-25T09:55:31.771Z,15.02
2022-10-25T09:56:31.759Z,14.99
2022-10-25T09:57:31.727Z,15.00
2022-10-25T09:58:31.703Z,15.00
2022-10-25T09:59:31.700Z,15.06
2022-10-25T10:00:31.682Z,15.04
2022-10-25T10:01:31.852Z,15.07
2022-10-25T10:02:31.836Z,15.07
2022-10-25T10:03:31.667Z,15.02
2022-10-25T10:04:31.667Z,15.07
2022-10-25T10:05:31.634Z,15.09
2022-10-25T10:06:31.645Z,15.06
2022-10-25T10:07:31.611Z,15.10
2022-10-25T10:08:31.597Z,15.07
2022-10-25T10:09:31.602Z,15.09
2022-10-25T10:10:31.574Z,15.10
2022-10-25T10:11:31.594Z,15.11
2022-10-25T10:12:31.572Z,15.09
2022-10-25T10:13:31.555Z,15.11
2022-10-25T10:14:31.540Z,15.11
2022-10-25T10:15:31.520Z,15.11
2022-10-25T10:16:31.506Z,15.11
2022-10-25T10:17:31.501Z,15.24
2022-10-25T10:18:31.498Z,15.25
2022-10-25T10:19:31.519Z,15.29
2022-10-25T10:20:31.465Z,15.33
2022-10-25T10:21:31.455Z,15.43
2022-10-25T10:22:31.438Z,15.47
2022-10-25T10:23:31.431Z,15.49
2022-10-25T10:24:31.432Z,15.57
2022-10-25T10:25:31.428Z,15.83
2022-10-25T10:26:31.398Z,15.86
2022-10-25T10:27:31.411Z,16.04
2022-10-25T10:28:31.368Z,16.04
2022-10-25T10:29:31.363Z,16.01
2022-10-25T10:30:31.368Z,16.05
2022-10-25T10:31:31.370Z,16.02
2022-10-25T10:32:31.390Z,16.08
2022-10-25T10:33:31.323Z,16.17
2022-10-25T10:34:31.339Z,16.13
2022-10-25T10:35:31.316Z,16.28
2022-10-25T10:36:31.287Z,16.35
2022-10-25T10:37:31.291Z,16.43
2022-10-25T10:38:31.280Z,16.43
2022-10-25T10:39:31.286Z,16.38
2022-10-25T10:40:31.244Z,16.32
2022-10-25T10:41:31.235Z,16.43
2022-10-25T10:43:31.236Z,16.41
2022-10-25T10:44:31.212Z,16.50
2022-10-25T10:45:31.202Z,16.42
2022-10-25T10:46:31.182Z,16.43
2022-10-25T10:47:31.169Z,16.49
2022-10-25T10:48:31.152Z,16.42
2022-10-25T10:49:31.152Z,16.38
2022-10-25T10:50:31.128Z,16.35
2022-10-25T10:51:43.415Z,16.33
2022-10-25T10:52:32.128Z,16.26
2022-10-25T10:53:31.107Z,16.26
2022-10-25T10:54:31.083Z,16.36
2022-10-25T10:55:31.111Z,16.39
2022-10-25T10:56:31.060Z,16.39
2022-10-25T10:57:31.055Z,16.43
2022-10-25T10:58:31.050Z,16.42
2022-10-25T10:59:31.071Z,16.36
2022-10-25T11:00:31.017Z,16.35
2022-10-25T11:01:31.180Z,16.10
2022-10-25T11:02:31.184Z,16.01
2022-10-25T11:03:30.988Z,16.00
2022-10-25T11:04:30.982Z,15.98
2022-10-25T11:05:30.968Z,15.95
2022-10-25T11:06:30.988Z,16.21
2022-10-25T11:07:30.966Z,16.42
2022-10-25T11:08:30.934Z,16.61
2022-10-25T11:09:30.984Z,16.81
2022-10-25T11:10:30.911Z,16.89
2022-10-25T11:11:30.922Z,16.84
2022-10-25T11:12:30.882Z,16.72
2022-10-25T11:13:30.875Z,16.49
2022-10-25T11:14:30.858Z,16.46
2022-10-25T11:15:30.972Z,16.50
2022-10-25T11:16:30.840Z,16.51
2022-10-25T11:17:30.857Z,16.39
2022-10-25T11:18:30.818Z,16.50
2022-10-25T11:19:30.848Z,16.49
2022-10-25T11:20:30.796Z,16.54
2022-10-25T11:21:30.781Z,16.69
2022-10-25T11:22:32.874Z,16.81
2022-10-25T11:23:30.757Z,16.79
2022-10-25T11:24:30.765Z,16.75
2022-10-25T11:25:30.745Z,16.66
2022-10-25T11:26:30.746Z,16.53
2022-10-25T11:27:33.039Z,16.46
2022-10-25T11:28:30.706Z,16.47
2022-10-25T11:29:30.714Z,16.58
2022-10-25T11:30:30.686Z,16.86
2022-10-25T11:31:30.896Z,17.05
2022-10-25T11:32:30.741Z,17.26
2022-10-25T11:33:30.647Z,17.26
2022-10-25T11:34:30.666Z,17.52
2022-10-25T11:35:30.657Z,17.60
2022-10-25T11:36:30.613Z,17.54
2022-10-25T11:37:30.603Z,17.65
2022-10-25T11:38:30.587Z,17.67
2022-10-25T11:39:30.592Z,17.60
2022-10-25T11:40:30.566Z,17.56
2022-10-25T11:41:30.597Z,17.63
2022-10-25T11:42:30.557Z,17.64
2022-10-25T11:43:30.536Z,17.36
2022-10-25T11:44:30.544Z,17.24
2022-10-25T11:45:30.535Z,17.15
2022-10-25T11:46:30.544Z,17.11
2022-10-25T11:47:30.606Z,17.29
2022-10-25T11:48:30.476Z,17.51
2022-10-25T11:49:30.468Z,17.59
2022-10-25T11:50:30.459Z,17.67
2022-10-25T11:51:30.454Z,17.79
2022-10-25T11:52:30.433Z,17.74
2022-10-25T11:53:30.423Z,17.76
2022-10-25T11:54:30.415Z,17.80
2022-10-25T11:55:30.402Z,17.79
2022-10-25T11:56:30.413Z,17.90
2022-10-25T11:57:30.410Z,17.86
2022-10-25T11:58:30.386Z,17.82
2022-10-25T11:59:30.353Z,17.82
2022-10-25T12:00:30.350Z,17.82
2022-10-25T12:01:30.443Z,17.74
2022-10-25T12:02:30.383Z,17.79
2022-10-25T12:03:30.430Z,17.72
2022-10-25T12:04:31.227Z,17.63
2022-10-25T12:05:30.290Z,17.56
2022-10-25T12:06:30.295Z,17.60
2022-10-25T12:07:30.289Z,17.52
2022-10-25T12:08:30.261Z,17.33
2022-10-25T12:09:30.246Z,17.49
2022-10-25T12:10:30.231Z,17.52
2022-10-25T12:11:30.224Z,17.52
2022-10-25T12:12:30.214Z,17.57
2022-10-25T12:13:30.213Z,17.60
2022-10-25T12:14:30.204Z,17.64
2022-10-25T12:15:30.180Z,17.56
2022-10-25T12:16:30.172Z,17.76
2022-10-25T12:17:30.174Z,17.59
2022-10-25T12:18:30.165Z,17.60
2022-10-25T12:19:30.249Z,17.52
2022-10-25T12:20:30.187Z,17.36
2022-10-25T12:21:30.107Z,17.41
2022-10-25T12:22:30.118Z,17.48
2022-10-25T12:23:30.093Z,17.59
2022-10-25T12:24:30.075Z,17.70
2022-10-25T12:25:30.092Z,17.71
2022-10-25T12:26:30.051Z,17.74
2022-10-25T12:27:30.063Z,17.74
2022-10-25T12:28:30.035Z,17.80
2022-10-25T12:29:30.024Z,17.82
2022-10-25T12:30:30.043Z,17.71
2022-10-25T12:31:29.998Z,17.83
2022-10-25T12:32:29.983Z,17.70
2022-10-25T12:33:29.985Z,17.86
2022-10-25T12:34:29.965Z,17.68
2022-10-25T12:35:30.087Z,17.79
2022-10-25T12:36:29.940Z,17.63
2022-10-25T12:37:29.928Z,17.64
2022-10-25T12:38:29.912Z,17.59
2022-10-25T12:39:29.910Z,17.59
2022-10-25T12:40:29.918Z,17.59
2022-10-25T12:41:29.930Z,17.57
2022-10-25T12:42:29.871Z,17.64
2022-10-25T12:43:29.865Z,17.72
2022-10-25T12:44:29.846Z,17.65
2022-10-25T12:45:29.852Z,17.78
2022-10-25T12:46:29.841Z,17.72
2022-10-25T12:47:29.834Z,17.72
2022-10-25T12:48:29.803Z,17.56
2022-10-25T12:49:29.796Z,17.64
2022-10-25T12:50:29.801Z,17.51
2022-10-25T12:51:29.890Z,17.68
2022-10-25T12:52:29.758Z,17.67
2022-10-25T12:53:29.764Z,17.60
2022-10-25T12:54:29.737Z,17.72
2022-10-25T12:55:29.738Z,17.71
2022-10-25T12:56:29.716Z,17.67
2022-10-25T12:57:29.745Z,17.70